createdAt,value
2022-11-24T00:00:11.935Z,98759.03
2022-11-24T00:00:23.850Z,98762.34
2022-11-24T00:00:35.772Z,98762.63
2022-11-24T00:00:47.654Z,98764.44
2022-11-24T00:01:08.387Z,98763.34
2022-11-24T00:01:25.690Z,98760.69
2022-11-24T00:01:37.564Z,98765.72
2022-11-24T00:01:49.507Z,98763.81
2022-11-24T00:02:01.631Z,98761.38
2022-11-24T00:02:13.909Z,98760.16
2022-11-24T00:02:25.990Z,98766.13
2022-11-24T00:02:38.120Z,98763.75
2022-11-24T00:02:50.228Z,98765.34
2022-11-24T00:03:04.627Z,98760.84
2022-11-24T00:03:17.028Z,98765.88
2022-11-24T00:03:29.544Z,98763.28
2022-11-24T00:03:41.807Z,98765.88
2022-11-24T00:03:55.311Z,98764.16
2022-11-24T00:04:07.527Z,98762.63
2022-11-24T00:04:19.409Z,98766.97
2022-11-24T00:04:31.446Z,98764.44
2022-11-24T00:04:43.477Z,98765.09
2022-11-24T00:04:55.335Z,98764.44
2022-11-24T00:05:07.775Z,98766.19
2022-11-24T00:05:19.672Z,98753.94
2022-11-24T00:05:31.656Z,98768.63
2022-11-24T00:05:43.874Z,98766.81
2022-11-24T00:05:55.746Z,98764.06
2022-11-24T00:06:10.777Z,98766.81
2022-11-24T00:06:23.852Z,98767.03
2022-11-24T00:06:35.971Z,98773.25
2022-11-24T00:06:47.846Z,98771.44
2022-11-24T00:06:59.701Z,98772.66
2022-11-24T00:07:11.646Z,98776.72
2022-11-24T00:07:23.605Z,98775.16
2022-11-24T00:07:35.588Z,98768.31
2022-11-24T00:07:47.539Z,98774.28
2022-11-24T00:07:59.495Z,98776.88
2022-11-24T00:08:12.114Z,98774.22
2022-11-24T00:08:24.034Z,98771.69
2022-11-24T00:08:36.767Z,98772.50
2022-11-24T00:08:48.677Z,98772.66
2022-11-24T00:09:01.177Z,98770.13
2022-11-24T00:09:13.141Z,98775.31
2022-11-24T00:09:25.071Z,98772.47
2022-11-24T00:09:36.984Z,98769.88
2022-11-24T00:09:48.855Z,98776.66
2022-11-24T00:10:00.725Z,98773.13
2022-11-24T00:10:12.626Z,98770.53
2022-11-24T00:10:24.507Z,98781.69
2022-11-24T00:10:36.419Z,98772.31
2022-11-24T00:10:48.292Z,98771.53
2022-11-24T00:11:08.346Z,98771.53
2022-11-24T00:11:23.139Z,98772.47
2022-11-24T00:11:36.214Z,98773.44
2022-11-24T00:11:48.085Z,98772.41
2022-11-24T00:12:01.266Z,98775.31
2022-11-24T00:12:13.171Z,98776.13
2022-11-24T00:12:25.065Z,98768.41
2022-11-24T00:12:36.940Z,98771.19
2022-11-24T00:12:48.798Z,98776.38
2022-11-24T00:13:00.666Z,98773.59
2022-11-24T00:13:12.738Z,98775.25
2022-11-24T00:13:24.604Z,98775.06
2022-11-24T00:13:38.955Z,98774.28
2022-11-24T00:13:51.374Z,98772.56
2022-11-24T00:14:04.562Z,98771.78
2022-11-24T00:14:16.474Z,98775.41
2022-11-24T00:14:28.394Z,98775.41
2022-11-24T00:14:40.261Z,98770.13
2022-11-24T00:14:52.187Z,98769.34
2022-11-24T00:15:04.317Z,98772.66
2022-11-24T00:15:16.320Z,98775.06
2022-11-24T00:15:28.234Z,98766.34
2022-11-24T00:15:40.093Z,98767.22
2022-11-24T00:15:51.963Z,98776.72
2022-11-24T00:16:05.817Z,98771.63
2022-11-24T00:16:22.878Z,98773.25
2022-11-24T00:16:36.962Z,98778.44
2022-11-24T00:16:48.920Z,98777.59
2022-11-24T00:17:00.902Z,98771.44
2022-11-24T00:17:12.806Z,98774.91
2022-11-24T00:17:24.685Z,98776.63
2022-11-24T00:17:36.560Z,98776.50
2022-11-24T00:17:48.432Z,98782.47
2022-11-24T00:18:00.325Z,98778.94
2022-11-24T00:18:12.179Z,98778.31
2022-11-24T00:18:24.044Z,98775.78
2022-11-24T00:18:36.168Z,98780.25
2022-11-24T00:18:50.139Z,98782.84
2022-11-24T00:19:04.190Z,98778.69
2022-11-24T00:19:19.734Z,98784.13
2022-11-24T00:19:31.934Z,98782.31
2022-11-24T00:19:43.942Z,98781.72
2022-11-24T00:19:55.827Z,98782.97
2022-11-24T00:20:08.416Z,98783.81
2022-11-24T00:20:20.278Z,98779.28
2022-11-24T00:20:32.161Z,98782.78
2022-11-24T00:20:51.990Z,98779.91
2022-11-24T00:21:04.006Z,98779.91
2022-11-24T00:21:18.261Z,98784.34
2022-11-24T00:21:31.715Z,98781.63
2022-11-24T00:21:43.688Z,98783.44
2022-11-24T00:21:55.559Z,98781.88
2022-11-24T00:22:07.447Z,98783.75
2022-11-24T00:22:19.309Z,98782.78
2022-11-24T00:22:31.181Z,98777.47
2022-11-24T00:22:43.091Z,98768.81
2022-11-24T00:22:55.936Z,98786.56
2022-11-24T00:23:07.933Z,98779.56
2022-11-24T00:23:19.864Z,98778.78
2022-11-24T00:23:31.891Z,98782.16
2022-11-24T00:23:44.761Z,98783.38
2022-11-24T00:23:57.576Z,98782.84
2022-11-24T00:24:09.731Z,98777.13
2022-11-24T00:24:21.599Z,98777.22
2022-11-24T00:24:33.717Z,98786.53
2022-11-24T00:24:45.834Z,98782.19
2022-11-24T00:24:57.711Z,98773.69
2022-11-24T00:25:09.625Z,98780.56
2022-11-24T00:25:21.613Z,98779.66
2022-11-24T00:25:33.519Z,98779.53
2022-11-24T00:25:45.399Z,98779.47
2022-11-24T00:26:05.536Z,98783.81
2022-11-24T00:26:18.856Z,98781.34
2022-11-24T00:26:36.169Z,98775.25
2022-11-24T00:26:48.067Z,98778.63
2022-11-24T00:26:59.993Z,98788.75
2022-11-24T00:27:11.897Z,98779.47
2022-11-24T00:27:23.767Z,98780.06
2022-11-24T00:27:35.639Z,98784.34
2022-11-24T00:27:47.571Z,98778.34
2022-11-24T00:27:59.444Z,98781.09
2022-11-24T00:28:11.332Z,98784.47
2022-11-24T00:28:23.206Z,98782.66
2022-11-24T00:28:36.796Z,98782.56
2022-11-24T00:28:50.433Z,98778.25
2022-11-24T00:29:05.543Z,98782.78
2022-11-24T00:29:17.586Z,98785.63
2022-11-24T00:29:29.492Z,98787.34
2022-11-24T00:29:41.380Z,98786.41
2022-11-24T00:29:53.310Z,98778.50
2022-11-24T00:30:05.551Z,98784.22
2022-11-24T00:30:17.440Z,98783.97
2022-11-24T00:30:29.395Z,98784.13
2022-11-24T00:30:41.357Z,98779.75
2022-11-24T00:30:53.309Z,98787.47
2022-11-24T00:31:17.171Z,98784.13
2022-11-24T00:31:35.226Z,98783.28
2022-11-24T00:31:47.218Z,98783.38
2022-11-24T00:31:59.160Z,98787.06
2022-11-24T00:32:11.033Z,98784.72
2022-11-24T00:32:22.949Z,98778.81
2022-11-24T00:32:34.811Z,98786.41
2022-11-24T00:32:46.703Z,98778.75
2022-11-24T00:32:58.583Z,98779.78
2022-11-24T00:33:10.467Z,98785.78
2022-11-24T00:33:22.364Z,98783.03
2022-11-24T00:33:34.266Z,98784.34
2022-11-24T00:33:48.115Z,98788.50
2022-11-24T00:34:01.996Z,98784.94
2022-11-24T00:34:14.533Z,98784.13
2022-11-24T00:34:26.426Z,98790.38
2022-11-24T00:34:38.678Z,98784.34
2022-11-24T00:34:50.557Z,98787.84
2022-11-24T00:35:02.457Z,98788.09
2022-11-24T00:35:14.439Z,98786.53
2022-11-24T00:35:26.320Z,98787.59
2022-11-24T00:35:38.199Z,98780.94
2022-11-24T00:36:00.418Z,98792.78
2022-11-24T00:36:12.544Z,98778.81
2022-11-24T00:36:27.094Z,98794.19
2022-11-24T00:36:39.879Z,98783.28
2022-11-24T00:36:51.759Z,98785.88
2022-11-24T00:37:03.650Z,98788.56
2022-11-24T00:37:15.542Z,98794.59
2022-11-24T00:37:27.440Z,98784.22
2022-11-24T00:37:39.327Z,98792.09
2022-11-24T00:37:51.203Z,98786.66
2022-11-24T00:38:03.090Z,98785.09
2022-11-24T00:38:14.964Z,98789.50
2022-11-24T00:38:27.173Z,98783.28
2022-11-24T00:38:39.107Z,98786.53
2022-11-24T00:38:59.159Z,98789.31
2022-11-24T00:39:15.370Z,98784.31
2022-11-24T00:39:27.271Z,98787.69
2022-11-24T00:39:39.148Z,98786.72
2022-11-24T00:39:51.035Z,98790.13
2022-11-24T00:40:03.012Z,98790.09
2022-11-24T00:40:14.896Z,98789.31
2022-11-24T00:40:29.690Z,98789.25
2022-11-24T00:40:45.540Z,98783.16
2022-11-24T00:40:57.495Z,98779.41
2022-11-24T00:41:11.913Z,98786.28
2022-11-24T00:41:25.397Z,98787.72
2022-11-24T00:41:37.778Z,98784.41
2022-11-24T00:41:49.834Z,98784.34
2022-11-24T00:42:01.987Z,98783.53
2022-11-24T00:42:14.284Z,98785.38
2022-11-24T00:42:26.202Z,98786.41
2022-11-24T00:42:38.084Z,98786.03
2022-11-24T00:42:49.953Z,98790.84
2022-11-24T00:43:01.925Z,98791.88
2022-11-24T00:43:13.926Z,98783.34
2022-11-24T00:43:25.806Z,98793.03
2022-11-24T00:43:37.971Z,98786.03
2022-11-24T00:43:50.028Z,98789.41
2022-11-24T00:44:02.030Z,98791.47
2022-11-24T00:44:13.977Z,98788.91
2022-11-24T00:44:25.873Z,98788.91
2022-11-24T00:44:37.765Z,98786.66
2022-11-24T00:44:49.641Z,98801.34
2022-11-24T00:45:12.918Z,98783.09
2022-11-24T00:45:25.569Z,98784.34
2022-11-24T00:45:37.475Z,98781.09
2022-11-24T00:45:49.510Z,98782.66
2022-11-24T00:46:02.042Z,98787.72
2022-11-24T00:46:14.081Z,98786.28
2022-11-24T00:46:27.124Z,98783.97
2022-11-24T00:46:39.277Z,98789.25
2022-11-24T00:46:51.371Z,98789.06
2022-11-24T00:47:03.441Z,98790.91
2022-11-24T00:47:17.708Z,98791.69
2022-11-24T00:47:32.715Z,98785.53
2022-11-24T00:47:44.587Z,98791.22
2022-11-24T00:47:56.466Z,98789.41
2022-11-24T00:48:08.756Z,98785.09
2022-11-24T00:48:20.741Z,98787.97
2022-11-24T00:48:32.619Z,98791.47
2022-11-24T00:48:44.566Z,98786.28
2022-11-24T00:48:56.969Z,98783.94
2022-11-24T00:49:09.107Z,98789.06
2022-11-24T00:49:20.998Z,98814.25
2022-11-24T00:49:32.921Z,98794.09
2022-11-24T00:49:44.833Z,98792.19
2022-11-24T00:49:56.712Z,98797.56
2022-11-24T00:50:08.974Z,98789.06
2022-11-24T00:50:21.240Z,98788.22
2022-11-24T00:50:33.124Z,98787.44
2022-11-24T00:50:45.055Z,98788.56
2022-11-24T00:51:02.162Z,98795.69
2022-11-24T00:51:16.409Z,98794.59
2022-11-24T00:51:32.590Z,98790.13
2022-11-24T00:51:44.471Z,98794.91
2022-11-24T00:51:56.350Z,98789.75
2022-11-24T00:52:08.254Z,98794.25
2022-11-24T00:52:20.124Z,98794.97
2022-11-24T00:52:32.050Z,98792.19
2022-11-24T00:52:43.931Z,98795.75
2022-11-24T00:52:55.822Z,98794.28
2022-11-24T00:53:07.771Z,98793.28
2022-11-24T00:53:19.643Z,98785.44
2022-11-24T00:53:31.578Z,98784.72
2022-11-24T00:53:43.777Z,98799.19
2022-11-24T00:53:57.278Z,98792.91
2022-11-24T00:54:09.292Z,98793.16
2022-11-24T00:54:21.299Z,98795.47
2022-11-24T00:54:33.344Z,98786.94
2022-11-24T00:54:45.380Z,98794.47
2022-11-24T00:54:57.277Z,98796.16
2022-11-24T00:55:09.338Z,98788.38
2022-11-24T00:55:21.517Z,98797.06
2022-11-24T00:55:33.398Z,98797.72
2022-11-24T00:55:49.477Z,98789.28
2022-11-24T00:56:03.864Z,98797.72
2022-11-24T00:56:16.083Z,98799.28
2022-11-24T00:56:29.611Z,98802.66
2022-11-24T00:56:41.499Z,98795.59
2022-11-24T00:56:53.411Z,98802.59
2022-11-24T00:57:05.281Z,98799.16
2022-11-24T00:57:17.156Z,98788.78
2022-11-24T00:57:29.037Z,98801.75
2022-11-24T00:57:40.911Z,98802.78
2022-11-24T00:57:52.802Z,98797.72
2022-11-24T00:58:04.683Z,98796.81
2022-11-24T00:58:16.561Z,98798.44
2022-11-24T00:58:28.426Z,98799.16
2022-11-24T00:58:40.877Z,98803.44
2022-11-24T00:58:53.254Z,98798.91
2022-11-24T00:59:05.146Z,98804.00
2022-11-24T00:59:17.095Z,98797.69
2022-11-24T00:59:29.003Z,98795.28
2022-11-24T00:59:40.872Z,98794.25
2022-11-24T00:59:52.758Z,98801.31
2022-11-24T01:00:05.259Z,98796.91
2022-11-24T01:00:18.469Z,98801.31
2022-11-24T01:00:30.445Z,98805.56
2022-11-24T01:00:42.375Z,98804.81
2022-11-24T01:00:54.328Z,98808.06
2022-11-24T01:01:20.633Z,98799.59
2022-11-24T01:01:32.720Z,98809.34
2022-11-24T01:01:44.788Z,98810.31
2022-11-24T01:01:56.804Z,98802.53
2022-11-24T01:02:08.846Z,98807.47
2022-11-24T01:02:20.806Z,98812.56
2022-11-24T01:02:32.784Z,98814.22
2022-11-24T01:02:44.923Z,98809.28
2022-11-24T01:02:56.880Z,98817.13
2022-11-24T01:03:08.828Z,98805.56
2022-11-24T01:03:21.361Z,98809.75
2022-11-24T01:03:34.136Z,98825.38
2022-11-24T01:03:47.320Z,98809.09
2022-11-24T01:04:03.422Z,98810.75
2022-11-24T01:04:15.401Z,98819.81
2022-11-24T01:04:27.309Z,98819.59
2022-11-24T01:04:39.177Z,98814.38
2022-11-24T01:04:51.044Z,98816.09
2022-11-24T01:05:03.243Z,98816.19
2022-11-24T01:05:15.313Z,98821.47
2022-11-24T01:05:27.236Z,98814.63
2022-11-24T01:05:39.793Z,98808.47
2022-11-24T01:05:51.679Z,98814.38
2022-11-24T01:06:06.361Z,98821.13
2022-11-24T01:06:23.945Z,98816.97
2022-11-24T01:06:36.474Z,98819.66
2022-11-24T01:06:48.375Z,98819.41
2022-11-24T01:07:00.274Z,98817.75
2022-11-24T01:07:12.252Z,98814.38
2022-11-24T01:07:24.260Z,98815.78
2022-11-24T01:07:36.303Z,98814.13
2022-11-24T01:07:48.253Z,98814.22
2022-11-24T01:08:00.164Z,98814.22
2022-11-24T01:08:12.310Z,98821.13
2022-11-24T01:08:24.201Z,98820.13
2022-11-24T01:08:40.274Z,98827.97
2022-11-24T01:08:52.587Z,98817.50
2022-11-24T01:09:04.936Z,98808.78
2022-11-24T01:09:16.847Z,98812.31
2022-11-24T01:09:28.770Z,98815.94
2022-11-24T01:09:43.079Z,98820.34
2022-11-24T01:09:54.945Z,98822.06
2022-11-24T01:10:07.325Z,98827.09
2022-11-24T01:10:19.221Z,98818.13
2022-11-24T01:10:31.188Z,98815.59
2022-11-24T01:10:43.088Z,98815.59
2022-11-24T01:10:54.969Z,98819.88
2022-11-24T01:11:28.434Z,98822.69
2022-11-24T01:11:58.750Z,98822.94
2022-11-24T01:12:10.655Z,98833.09
2022-11-24T01:12:22.531Z,98815.78
2022-11-24T01:12:35.037Z,98820.72
2022-11-24T01:12:47.747Z,98820.59
2022-11-24T01:13:00.124Z,98823.19
2022-11-24T01:13:13.214Z,98824.22
2022-11-24T01:13:25.101Z,98820.72
2022-11-24T01:13:37.644Z,98819.75
2022-11-24T01:13:57.342Z,98823.19
2022-11-24T01:14:09.215Z,98817.25
2022-11-24T01:14:24.837Z,98823.84
2022-11-24T01:14:36.799Z,98824.09
2022-11-24T01:14:48.959Z,98824.72
2022-11-24T01:15:00.945Z,98816.84
2022-11-24T01:15:12.885Z,98826.28
2022-11-24T01:15:25.227Z,98831.38
2022-11-24T01:15:37.191Z,98830.47
2022-11-24T01:15:49.190Z,98826.31
2022-11-24T01:16:01.272Z,98830.72
2022-11-24T01:16:24.123Z,98823.84
2022-11-24T01:16:36.043Z,98834.31
2022-11-24T01:16:48.596Z,98828.25
2022-11-24T01:17:00.601Z,98827.22
2022-11-24T01:17:12.556Z,98834.09
2022-11-24T01:17:24.506Z,98834.22
2022-11-24T01:17:36.371Z,98831.56
2022-11-24T01:17:48.425Z,98835.19
2022-11-24T01:18:00.323Z,98836.56
2022-11-24T01:18:13.117Z,98831.47
2022-11-24T01:18:25.015Z,98829.56
2022-11-24T01:18:36.914Z,98833.97
2022-11-24T01:18:49.566Z,98833.91
2022-11-24T01:19:01.590Z,98838.78
2022-11-24T01:19:13.621Z,98828.50
2022-11-24T01:19:25.585Z,98837.34
2022-11-24T01:19:37.507Z,98840.97
2022-11-24T01:19:49.431Z,98839.53
2022-11-24T01:20:01.380Z,98841.88
2022-11-24T01:20:13.793Z,98844.75
2022-11-24T01:20:25.670Z,98840.19
2022-11-24T01:20:37.774Z,98833.19
2022-11-24T01:20:49.652Z,98835.88
2022-11-24T01:21:09.619Z,98840.84
2022-11-24T01:21:22.882Z,98841.44
2022-11-24T01:21:34.763Z,98843.97
2022-11-24T01:21:46.894Z,98840.44
2022-11-24T01:21:58.799Z,98844.09
2022-11-24T01:22:10.677Z,98843.50
2022-11-24T01:22:22.615Z,98838.50
2022-11-24T01:22:34.905Z,98843.44
2022-11-24T01:22:48.599Z,98839.03
2022-11-24T01:23:00.603Z,98841.88
2022-11-24T01:23:12.507Z,98840.72
2022-11-24T01:23:24.394Z,98844.16
2022-11-24T01:23:36.295Z,98835.53
2022-11-24T01:23:49.174Z,98843.00
2022-11-24T01:24:01.087Z,98843.72
2022-11-24T01:24:13.347Z,98845.63
2022-11-24T01:24:25.269Z,98847.34
2022-11-24T01:24:37.174Z,98849.00
2022-11-24T01:24:49.114Z,98841.19
2022-11-24T01:25:01.014Z,98844.53
2022-11-24T01:25:12.894Z,98843.00
2022-11-24T01:25:24.862Z,98840.44
2022-11-24T01:25:39.597Z,98836.97
2022-11-24T01:25:51.513Z,98841.50
2022-11-24T01:26:05.850Z,98849.28
2022-11-24T01:26:20.657Z,98836.97
2022-11-24T01:26:32.568Z,98837.81
2022-11-24T01:26:44.446Z,98843.13
2022-11-24T01:26:56.331Z,98837.34
2022-11-24T01:27:08.695Z,98838.13
2022-11-24T01:27:20.573Z,98841.50
2022-11-24T01:27:32.730Z,98836.97
2022-11-24T01:27:44.801Z,98840.59
2022-11-24T01:27:56.695Z,98840.53
2022-11-24T01:28:08.959Z,98832.56
2022-11-24T01:28:20.839Z,98840.19
2022-11-24T01:28:33.096Z,98841.00
2022-11-24T01:28:47.467Z,98846.25
2022-11-24T01:28:59.645Z,98844.69
2022-11-24T01:29:12.221Z,98845.53
2022-11-24T01:29:25.814Z,98843.59
2022-11-24T01:29:37.698Z,98841.19
2022-11-24T01:29:49.629Z,98840.19
2022-11-24T01:30:01.921Z,98846.81
2022-11-24T01:30:14.019Z,98852.03
2022-11-24T01:30:25.910Z,98846.09
2022-11-24T01:30:37.893Z,98841.91
2022-11-24T01:31:04.929Z,98839.81
2022-11-24T01:31:17.247Z,98846.97
2022-11-24T01:31:29.227Z,98841.91
2022-11-24T01:31:41.256Z,98847.09
2022-11-24T01:31:53.182Z,98844.44
2022-11-24T01:32:05.062Z,98836.72
2022-11-24T01:32:16.935Z,98841.91
2022-11-24T01:32:28.817Z,98847.16
2022-11-24T01:32:40.707Z,98841.69
2022-11-24T01:32:52.587Z,98845.16
2022-11-24T01:33:05.004Z,98847.59
2022-11-24T01:33:16.883Z,98850.09
2022-11-24T01:33:28.859Z,98850.09
2022-11-24T01:33:40.737Z,98853.47
2022-11-24T01:33:52.940Z,98854.28
2022-11-24T01:34:04.819Z,98849.09
2022-11-24T01:34:16.802Z,98848.38
2022-11-24T01:34:28.663Z,98853.72
2022-11-24T01:34:40.525Z,98849.47
2022-11-24T01:34:52.406Z,98848.53
2022-11-24T01:35:05.586Z,98851.91
2022-11-24T01:35:17.606Z,98855.34
2022-11-24T01:35:29.484Z,98854.50
2022-11-24T01:35:41.367Z,98852.53
2022-11-24T01:35:53.739Z,98857.88
2022-11-24T01:36:06.843Z,98851.97
2022-11-24T01:36:19.838Z,98853.56
2022-11-24T01:36:31.747Z,98847.50
2022-11-24T01:36:43.626Z,98853.56
2022-11-24T01:36:55.517Z,98853.56
2022-11-24T01:37:07.418Z,98850.91
2022-11-24T01:37:19.383Z,98857.78
2022-11-24T01:37:31.826Z,98853.31
2022-11-24T01:37:43.775Z,98860.31
2022-11-24T01:37:55.911Z,98855.13
2022-11-24T01:38:07.778Z,98853.56
2022-11-24T01:38:19.999Z,98855.28
2022-11-24T01:38:32.387Z,98851.91
2022-11-24T01:38:44.253Z,98855.75
2022-11-24T01:38:56.123Z,98854.09
2022-11-24T01:39:08.029Z,98853.97
2022-11-24T01:39:19.958Z,98854.09
2022-11-24T01:39:31.835Z,98857.47
2022-11-24T01:39:43.717Z,98854.22
2022-11-24T01:39:55.653Z,98851.38
2022-11-24T01:40:08.382Z,98852.06
2022-11-24T01:40:20.529Z,98855.53
2022-11-24T01:40:32.421Z,98850.19
2022-11-24T01:40:44.368Z,98854.41
2022-11-24T01:41:05.344Z,98857.94
2022-11-24T01:41:23.098Z,98851.13
2022-11-24T01:41:35.633Z,98855.53
2022-11-24T01:41:47.602Z,98853.84
2022-11-24T01:42:02.105Z,98857.88
2022-11-24T01:42:13.979Z,98860.47
2022-11-24T01:42:25.852Z,98857.88
2022-11-24T01:42:47.839Z,98862.03
2022-11-24T01:42:59.738Z,98856.94
2022-11-24T01:43:20.121Z,98854.97
2022-11-24T01:43:32.718Z,98855.75
2022-11-24T01:43:45.583Z,98861.22
2022-11-24T01:43:57.459Z,98861.09
2022-11-24T01:44:25.898Z,98855.19
2022-11-24T01:44:37.786Z,98858.81
2022-11-24T01:45:28.073Z,98855.75
2022-11-24T01:45:43.172Z,98853.13
2022-11-24T01:45:56.269Z,98856.63
2022-11-24T01:46:19.950Z,98860.91
2022-11-24T01:46:41.786Z,98852.53
2022-11-24T01:47:00.169Z,98860.44
2022-11-24T01:47:11.978Z,98854.34
2022-11-24T01:47:36.285Z,98862.00
2022-11-24T01:47:48.429Z,98860.00
2022-11-24T01:48:05.268Z,98860.94
2022-11-24T01:48:27.286Z,98857.72
2022-11-24T01:48:49.091Z,98855.75
2022-11-24T01:49:26.003Z,98857.06
2022-11-24T01:49:44.092Z,98856.81
2022-11-24T01:49:59.910Z,98858.44
2022-11-24T01:50:16.271Z,98859.41
2022-11-24T01:50:28.233Z,98863.69
2022-11-24T01:50:41.977Z,98859.41
2022-11-24T01:51:06.971Z,98861.34
2022-11-24T01:51:25.338Z,98859.41
2022-11-24T01:51:42.420Z,98862.19
2022-11-24T01:52:15.273Z,98860.94
2022-11-24T01:52:45.720Z,98857.59
2022-11-24T01:52:58.555Z,98857.41
2022-11-24T01:53:12.711Z,98855.53
2022-11-24T01:53:25.454Z,98863.31
2022-11-24T01:53:41.810Z,98860.13
2022-11-24T01:53:59.249Z,98866.22
2022-11-24T01:54:25.111Z,98859.41
2022-11-24T01:54:41.495Z,98865.13
2022-11-24T01:55:00.525Z,98864.47
2022-11-24T01:55:20.458Z,98864.72
2022-11-24T01:55:37.788Z,98861.19
2022-11-24T01:55:51.782Z,98869.59
2022-11-24T01:56:05.259Z,98868.63
2022-11-24T01:56:18.063Z,98858.97
2022-11-24T01:56:30.996Z,98869.38
2022-11-24T01:56:47.175Z,98869.50
2022-11-24T01:57:06.474Z,98867.69
2022-11-24T01:57:46.145Z,98865.31
2022-11-24T01:58:07.871Z,98864.47
2022-11-24T01:58:24.196Z,98867.00
2022-11-24T01:58:37.876Z,98871.22
2022-11-24T01:58:52.170Z,98874.75
2022-11-24T01:59:07.336Z,98865.91
2022-11-24T01:59:21.008Z,98866.56
2022-11-24T01:59:33.113Z,98869.41
2022-11-24T01:59:48.149Z,98860.59
2022-11-24T02:00:04.555Z,98860.78
2022-11-24T02:00:17.000Z,98870.97
2022-11-24T02:00:29.028Z,98858.19
2022-11-24T02:00:44.040Z,98867.47
2022-11-24T02:00:55.964Z,98877.72
2022-11-24T02:01:08.598Z,98867.31
2022-11-24T02:01:20.627Z,98875.91
2022-11-24T02:01:33.020Z,98879.53
2022-11-24T02:01:46.966Z,98860.84
2022-11-24T02:01:59.130Z,98869.56
2022-11-24T02:02:11.398Z,98870.56
2022-11-24T02:02:25.746Z,98868.81
2022-11-24T02:02:38.195Z,98871.72
2022-11-24T02:02:50.333Z,98870.94
2022-11-24T02:03:02.665Z,98861.94
2022-11-24T02:03:20.192Z,98865.50
2022-11-24T02:03:37.679Z,98881.28
2022-11-24T02:03:50.508Z,98872.47
2022-11-24T02:04:04.925Z,98878.47
2022-11-24T02:04:23.746Z,98879.31
2022-11-24T02:04:36.921Z,98882.59
2022-11-24T02:04:50.047Z,98880.56
2022-11-24T02:05:10.833Z,98869.28
2022-11-24T02:05:39.123Z,98871.75
2022-11-24T02:06:20.941Z,98877.84
2022-11-24T02:06:35.209Z,98870.31
2022-11-24T02:06:48.138Z,98873.75
2022-11-24T02:07:03.318Z,98875.19
2022-11-24T02:07:15.648Z,98876.16
2022-11-24T02:07:27.750Z,98874.34
2022-11-24T02:07:39.790Z,98875.38
2022-11-24T02:07:55.581Z,98874.66
2022-11-24T02:08:25.841Z,98872.06
2022-11-24T02:09:02.528Z,98876.31
2022-11-24T02:09:30.755Z,98869.41
2022-11-24T02:10:11.877Z,98870.38
2022-11-24T02:10:23.856Z,98878.22
2022-11-24T02:10:36.867Z,98879.00
2022-11-24T02:10:48.751Z,98876.78
2022-11-24T02:11:04.205Z,98869.91
2022-11-24T02:11:16.126Z,98870.56
2022-11-24T02:11:35.032Z,98874.59
2022-11-24T02:11:47.285Z,98873.16
2022-11-24T02:12:02.353Z,98874.75
2022-11-24T02:12:14.321Z,98876.41
2022-11-24T02:12:27.180Z,98872.94
2022-11-24T02:12:46.538Z,98873.81
2022-11-24T02:13:00.124Z,98867.97
2022-11-24T02:13:12.920Z,98875.84
2022-11-24T02:13:25.042Z,98875.63
2022-11-24T02:13:39.743Z,98869.66
2022-11-24T02:13:53.773Z,98873.75
2022-11-24T02:14:10.060Z,98883.94
2022-11-24T02:14:24.531Z,98869.94
2022-11-24T02:14:38.063Z,98872.66
2022-11-24T02:14:51.576Z,98873.97
2022-11-24T02:15:03.697Z,98868.06
2022-11-24T02:15:18.009Z,98876.03
2022-11-24T02:15:30.044Z,98883.16
2022-11-24T02:15:42.777Z,98877.97
2022-11-24T02:15:55.236Z,98867.59
2022-11-24T02:16:10.284Z,98873.50
2022-11-24T02:16:22.314Z,98887.19
2022-11-24T02:16:36.010Z,98880.97
2022-11-24T02:16:51.825Z,98879.41
2022-11-24T02:17:03.908Z,98872.41
2022-11-24T02:17:15.791Z,98882.06
2022-11-24T02:17:27.716Z,98872.41
2022-11-24T02:17:39.579Z,98885.50
2022-11-24T02:17:51.509Z,98887.31
2022-11-24T02:18:03.592Z,98881.09
2022-11-24T02:18:15.487Z,98880.72
2022-11-24T02:18:27.428Z,98887.78
2022-11-24T02:18:41.565Z,98877.19
2022-11-24T02:18:53.802Z,98893.78
2022-11-24T02:19:16.125Z,98884.13
2022-11-24T02:19:44.783Z,98878.13
2022-11-24T02:19:59.819Z,98878.22
2022-11-24T02:20:13.215Z,98874.75
2022-11-24T02:20:26.197Z,98885.13
2022-11-24T02:20:38.216Z,98881.59
2022-11-24T02:20:50.126Z,98880.00
2022-11-24T02:21:02.032Z,98879.06
2022-11-24T02:21:16.246Z,98886.91
2022-11-24T02:21:28.206Z,98880.28
2022-11-24T02:21:40.115Z,98880.25
2022-11-24T02:21:52.026Z,98886.91
2022-11-24T02:22:04.754Z,98878.22
2022-11-24T02:22:44.892Z,98891.19
2022-11-24T02:23:05.802Z,98882.53
2022-11-24T02:23:33.014Z,98887.63
2022-11-24T02:23:48.767Z,98897.19
2022-11-24T02:24:19.093Z,98888.09
2022-11-24T02:24:31.080Z,98888.88
2022-11-24T02:24:55.007Z,98880.63
2022-11-24T02:25:11.736Z,98877.97
2022-11-24T02:25:34.875Z,98890.75
2022-11-24T02:26:13.891Z,98881.59
2022-11-24T02:26:30.985Z,98890.31
2022-11-24T02:26:46.094Z,98888.59
2022-11-24T02:26:58.015Z,98893.75
2022-11-24T02:27:10.966Z,98879.53
2022-11-24T02:27:23.348Z,98889.78
2022-11-24T02:27:35.726Z,98883.81
2022-11-24T02:27:52.348Z,98886.41
2022-11-24T02:28:10.250Z,98881.09
2022-11-24T02:28:23.788Z,98887.31
2022-11-24T02:28:36.320Z,98878.34
2022-11-24T02:28:48.762Z,98881.59
2022-11-24T02:29:00.827Z,98879.84
2022-11-24T02:29:14.224Z,98881.84
2022-11-24T02:29:26.168Z,98892.25
2022-11-24T02:29:38.468Z,98884.44
2022-11-24T02:29:50.521Z,98897.19
2022-11-24T02:30:02.500Z,98885.75
2022-11-24T02:30:14.566Z,98894.06
2022-11-24T02:30:26.569Z,98882.66
2022-11-24T02:30:39.230Z,98879.00
2022-11-24T02:30:51.453Z,98894.06
2022-11-24T02:31:05.592Z,98880.31
2022-11-24T02:31:18.204Z,98883.16
2022-11-24T02:31:30.374Z,98877.97
2022-11-24T02:31:48.050Z,98878.81
2022-11-24T02:32:04.643Z,98879.94
2022-11-24T02:32:16.707Z,98878.13
2022-11-24T02:32:31.853Z,98880.00
2022-11-24T02:32:43.776Z,98878.91
2022-11-24T02:32:55.699Z,98876.53
2022-11-24T02:33:07.577Z,98883.53
2022-11-24T02:33:21.737Z,98876.41
2022-11-24T02:33:34.227Z,98873.81
2022-11-24T02:33:59.102Z,98896.28
2022-11-24T02:34:11.006Z,98876.53
2022-11-24T02:34:22.905Z,98887.88
2022-11-24T02:34:35.201Z,98884.41
2022-11-24T02:34:47.211Z,98879.53
2022-11-24T02:35:04.484Z,98874.22
2022-11-24T02:35:17.566Z,98887.00
2022-11-24T02:35:29.470Z,98875.78
2022-11-24T02:35:41.391Z,98884.47
2022-11-24T02:35:53.381Z,98879.22
2022-11-24T02:36:05.601Z,98882.69
2022-11-24T02:36:17.572Z,98878.94
2022-11-24T02:36:29.760Z,98885.22
2022-11-24T02:36:41.686Z,98875.25
2022-11-24T02:36:53.647Z,98881.22
2022-11-24T02:37:05.518Z,98891.72
2022-11-24T02:37:17.460Z,98889.78
2022-11-24T02:37:29.426Z,98883.56
2022-11-24T02:37:41.296Z,98886.22
2022-11-24T02:37:53.182Z,98882.53
2022-11-24T02:38:05.081Z,98882.66
2022-11-24T02:38:17.055Z,98887.56
2022-11-24T02:38:34.208Z,98881.59
2022-11-24T02:38:46.107Z,98890.22
2022-11-24T02:38:58.224Z,98878.19
2022-11-24T02:39:14.468Z,98877.44
2022-11-24T02:39:26.507Z,98880.97
2022-11-24T02:39:38.414Z,98881.09
2022-11-24T02:39:50.284Z,98889.78
2022-11-24T02:40:02.186Z,98874.34
2022-11-24T02:40:16.503Z,98877.00
2022-11-24T02:40:30.873Z,98884.47
2022-11-24T02:40:46.293Z,98879.28
2022-11-24T02:41:00.474Z,98883.03
2022-11-24T02:41:16.777Z,98879.84